sensor_id;sensor_type;location;lat;lon;timestamp;pressure;altitude;pressure_sealevel;temperature
71640;BMP280;60912;48.968;10.124;2022-10-16T00:02:16;96543.38;;;16.67
71640;BMP280;60912;48.968;10.124;2022-10-16T00:04:42;96539.56;;;16.73
71640;BMP280;60912;48.968;10.124;2022-10-16T00:07:07;96535.88;;;16.70
71640;BMP280;60912;48.968;10.124;2022-10-16T00:09:32;96539.41;;;16.71
71640;BMP280;60912;48.968;10.124;2022-10-16T00:11:58;96541.34;;;16.58
71640;BMP280;60912;48.968;10.124;2022-10-16T00:14:23;96545.16;;;16.53
71640;BMP280;60912;48.968;10.124;2022-10-16T00:16:48;96553.16;;;16.59
71640;BMP280;60912;48.968;10.124;2022-10-16T00:19:14;96544.53;;;16.64
71640;BMP280;60912;48.968;10.124;2022-10-16T00:21:39;96556.66;;;16.69
71640;BMP280;60912;48.968;10.124;2022-10-16T00:24:07;96552.72;;;16.72
71640;BMP280;60912;48.968;10.124;2022-10-16T00:26:35;96553.50;;;16.63
71640;BMP280;60912;48.968;10.124;2022-10-16T00:29:00;96549.81;;;16.60
71640;BMP280;60912;48.968;10.124;2022-10-16T00:31:26;96565.06;;;16.50
71640;BMP280;60912;48.968;10.124;2022-10-16T00:33:52;96548.22;;;16.48
71640;BMP280;60912;48.968;10.124;2022-10-16T00:36:21;96566.81;;;16.45
71640;BMP280;60912;48.968;10.124;2022-10-16T00:38:50;96565.31;;;16.44
71640;BMP280;60912;48.968;10.124;2022-10-16T00:41:19;96574.13;;;16.50
71640;BMP280;60912;48.968;10.124;2022-10-16T00:48:45;96557.91;;;16.37
71640;BMP280;60912;48.968;10.124;2022-10-16T00:51:10;96557.63;;;16.43
71640;BMP280;60912;48.968;10.124;2022-10-16T00:53:36;96567.09;;;16.40
71640;BMP280;60912;48.968;10.124;2022-10-16T00:56:02;96575.47;;;16.30
71640;BMP280;60912;48.968;10.124;2022-10-16T00:58:28;96561.38;;;16.28
71640;BMP280;60912;48.968;10.124;2022-10-16T01:00:53;96565.63;;;16.39
71640;BMP280;60912;48.968;10.124;2022-10-16T01:03:33;96559.78;;;16.44
71640;BMP280;60912;48.968;10.124;2022-10-16T01:06:33;96545.16;;;16.53
71640;BMP280;60912;48.968;10.124;2022-10-16T01:08:58;96552.59;;;16.60
71640;BMP280;60912;48.968;10.124;2022-10-16T01:13:58;96549.38;;;16.64
71640;BMP280;60912;48.968;10.124;2022-10-16T01:16:39;96550.53;;;16.61
71640;BMP280;60912;48.968;10.124;2022-10-16T01:21:42;96570.59;;;16.59
71640;BMP280;60912;48.968;10.124;2022-10-16T01:24:37;96572.25;;;16.53
71640;BMP280;60912;48.968;10.124;2022-10-16T01:27:25;96568.25;;;16.56
71640;BMP280;60912;48.968;10.124;2022-10-16T01:30:17;96576.16;;;16.59
71640;BMP280;60912;48.968;10.124;2022-10-16T01:32:53;96577.34;;;16.56
71640;BMP280;60912;48.968;10.124;2022-10-16T01:35:36;96574.56;;;16.47
71640;BMP280;60912;48.968;10.124;2022-10-16T01:38:38;96569.41;;;16.43
71640;BMP280;60912;48.968;10.124;2022-10-16T01:41:26;96563.03;;;16.41
71640;BMP280;60912;48.968;10.124;2022-10-16T01:44:02;96571.38;;;16.41
71640;BMP280;60912;48.968;10.124;2022-10-16T01:46:30;96572.38;;;16.45
71640;BMP280;60912;48.968;10.124;2022-10-16T01:48:57;96572.50;;;16.38
71640;BMP280;60912;48.968;10.124;2022-10-16T01:51:25;96590.25;;;16.42
71640;BMP280;60912;48.968;10.124;2022-10-16T01:53:54;96584.97;;;16.46
71640;BMP280;60912;48.968;10.124;2022-10-16T01:56:21;96578.97;;;16.50
71640;BMP280;60912;48.968;10.124;2022-10-16T01:58:55;96581.28;;;16.44
71640;BMP280;60912;48.968;10.124;2022-10-16T02:01:23;96574.41;;;16.35
71640;BMP280;60912;48.968;10.124;2022-10-16T02:03:52;96578.97;;;16.40
71640;BMP280;60912;48.968;10.124;2022-10-16T02:06:18;96574.97;;;16.43
71640;BMP280;60912;48.968;10.124;2022-10-16T02:08:46;96576.03;;;16.48
71640;BMP280;60912;48.968;10.124;2022-10-16T02:11:11;96581.75;;;16.40
71640;BMP280;60912;48.968;10.124;2022-10-16T02:13:48;96584.81;;;16.25
71640;BMP280;60912;48.968;10.124;2022-10-16T02:16:16;96571.31;;;16.12
71640;BMP280;60912;48.968;10.124;2022-10-16T02:18:42;96557.13;;;16.08
71640;BMP280;60912;48.968;10.124;2022-10-16T02:21:25;96568.09;;;16.06
71640;BMP280;60912;48.968;10.124;2022-10-16T02:29:26;96571.47;;;16.14
71640;BMP280;60912;48.968;10.124;2022-10-16T02:31:59;96580.72;;;16.16
71640;BMP280;60912;48.968;10.124;2022-10-16T02:34:27;96577.19;;;16.16
71640;BMP280;60912;48.968;10.124;2022-10-16T02:36:55;96581.69;;;16.11
71640;BMP280;60912;48.968;10.124;2022-10-16T02:39:21;96579.94;;;16.06
71640;BMP280;60912;48.968;10.124;2022-10-16T02:41:47;96585.22;;;16.12
71640;BMP280;60912;48.968;10.124;2022-10-16T02:44:12;96579.66;;;16.12
71640;BMP280;60912;48.968;10.124;2022-10-16T02:46:38;96580.09;;;16.08
71640;BMP280;60912;48.968;10.124;2022-10-16T02:49:03;96583.78;;;16.11
71640;BMP280;60912;48.968;10.124;2022-10-16T02:51:29;96571.47;;;16.14
71640;BMP280;60912;48.968;10.124;2022-10-16T02:53:54;96573.97;;;16.10
71640;BMP280;60912;48.968;10.124;2022-10-16T02:56:20;96579.66;;;16.02
71640;BMP280;60912;48.968;10.124;2022-10-16T02:58:45;96583.28;;;15.95
71640;BMP280;60912;48.968;10.124;2022-10-16T03:01:10;96583.00;;;16.01
71640;BMP280;60912;48.968;10.124;2022-10-16T03:03:38;96584.78;;;16.06
71640;BMP280;60912;48.968;10.124;2022-10-16T03:06:03;96598.38;;;16.02
71640;BMP280;60912;48.968;10.124;2022-10-16T03:08:29;96597.63;;;15.92
71640;BMP280;60912;48.968;10.124;2022-10-16T03:10:54;96594.38;;;15.95
71640;BMP280;60912;48.968;10.124;2022-10-16T03:13:20;96605.09;;;15.99
71640;BMP280;60912;48.968;10.124;2022-10-16T03:15:45;96599.25;;;15.95
71640;BMP280;60912;48.968;10.124;2022-10-16T03:18:11;96606.53;;;15.90
71640;BMP280;60912;48.968;10.124;2022-10-16T03:20:36;96587.81;;;15.91
71640;BMP280;60912;48.968;10.124;2022-10-16T03:23:01;96598.06;;;15.98
71640;BMP280;60912;48.968;10.124;2022-10-16T03:25:27;96583.59;;;15.99
71640;BMP280;60912;48.968;10.124;2022-10-16T03:27:53;96572.88;;;15.96
71640;BMP280;60912;48.968;10.124;2022-10-16T03:30:18;96585.22;;;16.02
71640;BMP280;60912;48.968;10.124;2022-10-16T03:32:44;96582.44;;;16.12
71640;BMP280;60912;48.968;10.124;2022-10-16T03:35:11;96573.38;;;16.21
71640;BMP280;60912;48.968;10.124;2022-10-16T03:37:37;96567.56;;;16.27
71640;BMP280;60912;48.968;10.124;2022-10-16T03:40:03;96565.91;;;16.33
71640;BMP280;60912;48.968;10.124;2022-10-16T03:42:29;96558.59;;;16.38
71640;BMP280;60912;48.968;10.124;2022-10-16T03:44:54;96556.00;;;16.30
71640;BMP280;60912;48.968;10.124;2022-10-16T03:47:20;96554.78;;;16.14
71640;BMP280;60912;48.968;10.124;2022-10-16T03:49:47;96563.88;;;16.05
71640;BMP280;60912;48.968;10.124;2022-10-16T03:52:13;96564.13;;;15.90
71640;BMP280;60912;48.968;10.124;2022-10-16T03:54:38;96568.50;;;15.93
71640;BMP280;60912;48.968;10.124;2022-10-16T03:57:04;96573.34;;;16.02
71640;BMP280;60912;48.968;10.124;2022-10-16T03:59:29;96582.41;;;15.93
71640;BMP280;60912;48.968;10.124;2022-10-16T04:01:54;96594.06;;;15.82
71640;BMP280;60912;48.968;10.124;2022-10-16T04:04:19;96593.88;;;15.70
71640;BMP280;60912;48.968;10.124;2022-10-16T04:06:45;96597.13;;;15.66
71640;BMP280;60912;48.968;10.124;2022-10-16T04:09:10;96597.50;;;15.63
71640;BMP280;60912;48.968;10.124;2022-10-16T04:11:35;96589.34;;;15.65
71640;BMP280;60912;48.968;10.124;2022-10-16T04:14:01;96592.56;;;15.71
71640;BMP280;60912;48.968;10.124;2022-10-16T04:16:26;96603.88;;;15.83
71640;BMP280;60912;48.968;10.124;2022-10-16T04:18:52;96599.94;;;15.86
71640;BMP280;60912;48.968;10.124;2022-10-16T04:21:17;96603.31;;;15.94
71640;BMP280;60912;48.968;10.124;2022-10-16T04:23:42;96594.09;;;15.91
71640;BMP280;60912;48.968;10.124;2022-10-16T04:26:08;96597.16;;;15.95
71640;BMP280;60912;48.968;10.124;2022-10-16T04:28:35;96600.69;;;15.96
71640;BMP280;60912;48.968;10.124;2022-10-16T04:31:03;96599.81;;;15.93
71640;BMP280;60912;48.968;10.124;2022-10-16T04:33:29;96593.50;;;15.93
71640;BMP280;60912;48.968;10.124;2022-10-16T04:35:58;96595.84;;;15.96
71640;BMP280;60912;48.968;10.124;2022-10-16T04:38:24;96604.50;;;15.91
71640;BMP280;60912;48.968;10.124;2022-10-16T04:40:50;96604.44;;;15.81
71640;BMP280;60912;48.968;10.124;2022-10-16T04:43:15;96620.47;;;15.63
71640;BMP280;60912;48.968;10.124;2022-10-16T04:45:40;96614.16;;;15.53
71640;BMP280;60912;48.968;10.124;2022-10-16T04:48:06;96618.22;;;15.52
71640;BMP280;60912;48.968;10.124;2022-10-16T04:50:31;96609.75;;;15.50
71640;BMP280;60912;48.968;10.124;2022-10-16T04:52:56;96619.56;;;15.51
71640;BMP280;60912;48.968;10.124;2022-10-16T04:55:22;96618.09;;;15.50
71640;BMP280;60912;48.968;10.124;2022-10-16T04:57:47;96626.16;;;15.56
71640;BMP280;60912;48.968;10.124;2022-10-16T05:00:13;96636.41;;;15.63
71640;BMP280;60912;48.968;10.124;2022-10-16T05:02:38;96631.44;;;15.61
71640;BMP280;60912;48.968;10.124;2022-10-16T05:05:04;96621.22;;;15.64
71640;BMP280;60912;48.968;10.124;2022-10-16T05:07:29;96620.06;;;15.67
71640;BMP280;60912;48.968;10.124;2022-10-16T05:09:55;96620.78;;;15.67
71640;BMP280;60912;48.968;10.124;2022-10-16T05:12:20;96621.94;;;15.64
71640;BMP280;60912;48.968;10.124;2022-10-16T05:14:45;96623.25;;;15.63
71640;BMP280;60912;48.968;10.124;2022-10-16T05:17:11;96630.84;;;15.63
71640;BMP280;60912;48.968;10.124;2022-10-16T05:19:36;96634.34;;;15.54
71640;BMP280;60912;48.968;10.124;2022-10-16T05:22:02;96632.28;;;15.54
71640;BMP280;60912;48.968;10.124;2022-10-16T05:24:27;96643.97;;;15.53
71640;BMP280;60912;48.968;10.124;2022-10-16T05:26:52;96642.81;;;15.56
71640;BMP280;60912;48.968;10.124;2022-10-16T05:29:18;96638.00;;;15.56
71640;BMP280;60912;48.968;10.124;2022-10-16T05:31:43;96633.28;;;15.49
71640;BMP280;60912;48.968;10.124;2022-10-16T05:34:09;96641.63;;;15.49
71640;BMP280;60912;48.968;10.124;2022-10-16T05:36:34;96638.53;;;15.45
71640;BMP280;60912;48.968;10.124;2022-10-16T05:38:59;96638.06;;;15.39
71640;BMP280;60912;48.968;10.124;2022-10-16T05:41:25;96644.81;;;15.46
71640;BMP280;60912;48.968;10.124;2022-10-16T05:43:51;96650.69;;;15.50
71640;BMP280;60912;48.968;10.124;2022-10-16T05:46:17;96651.88;;;15.56
71640;BMP280;60912;48.968;10.124;2022-10-16T05:48:43;96653.19;;;15.55
71640;BMP280;60912;48.968;10.124;2022-10-16T05:51:11;96650.13;;;15.51
71640;BMP280;60912;48.968;10.124;2022-10-16T05:53:38;96654.50;;;15.54
71640;BMP280;60912;48.968;10.124;2022-10-16T05:56:04;96660.22;;;15.56
71640;BMP280;60912;48.968;10.124;2022-10-16T05:58:31;96657.59;;;15.58
71640;BMP280;60912;48.968;10.124;2022-10-16T06:01:09;96651.19;;;15.65
71640;BMP280;60912;48.968;10.124;2022-10-16T06:03:35;96654.00;;;15.75
71640;BMP280;60912;48.968;10.124;2022-10-16T06:06:14;96657.84;;;15.80
71640;BMP280;60912;48.968;10.124;2022-10-16T06:08:40;96654.38;;;15.89
71640;BMP280;60912;48.968;10.124;2022-10-16T06:11:11;96669.59;;;15.97
71640;BMP280;60912;48.968;10.124;2022-10-16T06:13:38;96669.06;;;16.18
71640;BMP280;60912;48.968;10.124;2022-10-16T06:16:04;96665.19;;;16.59
71640;BMP280;60912;48.968;10.124;2022-10-16T06:18:30;96658.41;;;18.10
71640;BMP280;60912;48.968;10.124;2022-10-16T06:20:56;96655.47;;;20.44
71640;BMP280;60912;48.968;10.124;2022-10-16T06:23:23;96662.41;;;22.26
71640;BMP280;60912;48.968;10.124;2022-10-16T06:25:48;96665.31;;;22.28
71640;BMP280;60912;48.968;10.124;2022-10-16T06:28:14;96676.59;;;20.96
71640;BMP280;60912;48.968;10.124;2022-10-16T06:30:40;96678.34;;;19.81
71640;BMP280;60912;48.968;10.124;2022-10-16T06:33:05;96691.31;;;18.76
71640;BMP280;60912;48.968;10.124;2022-10-16T06:35:31;96682.69;;;17.98
71640;BMP280;60912;48.968;10.124;2022-10-16T06:37:57;96679.31;;;17.59
71640;BMP280;60912;48.968;10.124;2022-10-16T06:40:23;96680.69;;;17.49
71640;BMP280;60912;48.968;10.124;2022-10-16T06:42:48;96689.06;;;17.30
71640;BMP280;60912;48.968;10.124;2022-10-16T06:45:13;96684.84;;;17.19
71640;BMP280;60912;48.968;10.124;2022-10-16T06:47:39;96696.59;;;17.17
71640;BMP280;60912;48.968;10.124;2022-10-16T06:50:05;96713.56;;;17.22
71640;BMP280;60912;48.968;10.124;2022-10-16T06:52:32;96718.84;;;17.08
71640;BMP280;60912;48.968;10.124;2022-10-16T06:54:57;96716.47;;;16.95
71640;BMP280;60912;48.968;10.124;2022-10-16T06:57:22;96714.44;;;16.86
71640;BMP280;60912;48.968;10.124;2022-10-16T06:59:48;96718.41;;;16.92
71640;BMP280;60912;48.968;10.124;2022-10-16T07:02:13;96717.38;;;16.88
71640;BMP280;60912;48.968;10.124;2022-10-16T07:04:38;96721.19;;;16.83
71640;BMP280;60912;48.968;10.124;2022-10-16T07:07:04;96722.38;;;16.99
71640;BMP280;60912;48.968;10.124;2022-10-16T07:09:29;96727.38;;;17.29
71640;BMP280;60912;48.968;10.124;2022-10-16T07:11:54;96722.78;;;17.43
71640;BMP280;60912;48.968;10.124;2022-10-16T07:14:21;96717.72;;;17.71
71640;BMP280;60912;48.968;10.124;2022-10-16T07:16:47;96710.19;;;17.92
71640;BMP280;60912;48.968;10.124;2022-10-16T07:19:13;96721.38;;;18.13
71640;BMP280;60912;48.968;10.124;2022-10-16T07:21:41;96716.06;;;18.17
71640;BMP280;60912;48.968;10.124;2022-10-16T07:24:13;96722.00;;;18.33
71640;BMP280;60912;48.968;10.124;2022-10-16T07:26:42;96715.38;;;18.59
71640;BMP280;60912;48.968;10.124;2022-10-16T07:29:24;96726.06;;;18.84
71640;BMP280;60912;48.968;10.124;2022-10-16T07:31:51;96726.94;;;19.08
71640;BMP280;60912;48.968;10.124;2022-10-16T07:34:18;96734.84;;;19.23
71640;BMP280;60912;48.968;10.124;2022-10-16T07:36:46;96746.41;;;19.17
71640;BMP280;60912;48.968;10.124;2022-10-16T07:39:12;96736.09;;;18.78
71640;BMP280;60912;48.968;10.124;2022-10-16T07:41:37;96750.81;;;18.57
71640;BMP280;60912;48.968;10.124;2022-10-16T07:44:03;96754.38;;;18.17
71640;BMP280;60912;48.968;10.124;2022-10-16T07:46:29;96758.59;;;17.97
71640;BMP280;60912;48.968;10.124;2022-10-16T07:48:54;96765.06;;;17.90
71640;BMP280;60912;48.968;10.124;2022-10-16T07:51:21;96765.47;;;17.96
71640;BMP280;60912;48.968;10.124;2022-10-16T07:53:48;96759.16;;;18.05
71640;BMP280;60912;48.968;10.124;2022-10-16T07:56:17;96769.22;;;18.20
71640;BMP280;60912;48.968;10.124;2022-10-16T07:58:42;96781.66;;;18.28
71640;BMP280;60912;48.968;10.124;2022-10-16T08:01:10;96781.31;;;18.34
71640;BMP280;60912;48.968;10.124;2022-10-16T08:03:36;96778.88;;;18.49
71640;BMP280;60912;48.968;10.124;2022-10-16T08:06:03;96777.09;;;18.54
71640;BMP280;60912;48.968;10.124;2022-10-16T08:08:29;96783.31;;;18.74
71640;BMP280;60912;48.968;10.124;2022-10-16T08:10:55;96787.75;;;19.09
71640;BMP280;60912;48.968;10.124;2022-10-16T08:13:21;96791.16;;;19.29
71640;BMP280;60912;48.968;10.124;2022-10-16T08:15:47;96786.47;;;19.43
71640;BMP280;60912;48.968;10.124;2022-10-16T08:18:14;96792.63;;;19.74
71640;BMP280;60912;48.968;10.124;2022-10-16T08:20:40;96792.91;;;20.02
71640;BMP280;60912;48.968;10.124;2022-10-16T08:23:06;96798.38;;;20.00
71640;BMP280;60912;48.968;10.124;2022-10-16T08:25:35;96797.84;;;19.80
71640;BMP280;60912;48.968;10.124;2022-10-16T08:28:04;96804.63;;;19.65
71640;BMP280;60912;48.968;10.124;2022-10-16T08:30:31;96808.88;;;19.66
71640;BMP280;60912;48.968;10.124;2022-10-16T08:32:56;96805.63;;;19.70
71640;BMP280;60912;48.968;10.124;2022-10-16T08:35:23;96815.69;;;19.75
71640;BMP280;60912;48.968;10.124;2022-10-16T08:37:48;96812.81;;;19.85
71640;BMP280;60912;48.968;10.124;2022-10-16T08:40:25;96818.81;;;19.91
71640;BMP280;60912;48.968;10.124;2022-10-16T08:48:47;96806.28;;;19.92
71640;BMP280;60912;48.968;10.124;2022-10-16T08:51:23;96799.31;;;19.81
71640;BMP280;60912;48.968;10.124;2022-10-16T08:53:57;96797.00;;;19.66
71640;BMP280;60912;48.968;10.124;2022-10-16T08:56:25;96793.09;;;19.71
71640;BMP280;60912;48.968;10.124;2022-10-16T08:58:53;96791.16;;;19.85
71640;BMP280;60912;48.968;10.124;2022-10-16T09:01:21;96805.94;;;20.09
71640;BMP280;60912;48.968;10.124;2022-10-16T09:12:31;96817.19;;;20.80
71640;BMP280;60912;48.968;10.124;2022-10-16T09:15:31;96807.44;;;20.93
71640;BMP280;60912;48.968;10.124;2022-10-16T09:18:10;96819.13;;;20.90
71640;BMP280;60912;48.968;10.124;2022-10-16T09:20:49;96810.38;;;20.95
71640;BMP280;60912;48.968;10.124;2022-10-16T09:23:29;96830.28;;;21.01
71640;BMP280;60912;48.968;10.124;2022-10-16T09:25:57;96835.31;;;21.03
71640;BMP280;60912;48.968;10.124;2022-10-16T09:28:23;96838.38;;;20.95
71640;BMP280;60912;48.968;10.124;2022-10-16T09:30:49;96839.34;;;21.00
71640;BMP280;60912;48.968;10.124;2022-10-16T09:33:17;96832.84;;;20.97
71640;BMP280;60912;48.968;10.124;2022-10-16T09:35:53;96840.13;;;21.14
71640;BMP280;60912;48.968;10.124;2022-10-16T09:38:32;96844.44;;;21.40
71640;BMP280;60912;48.968;10.124;2022-10-16T09:41:00;96839.94;;;21.60
71640;BMP280;60912;48.968;10.124;2022-10-16T09:43:26;96843.81;;;21.67
71640;BMP280;60912;48.968;10.124;2022-10-16T09:46:02;96841.22;;;21.57
71640;BMP280;60912;48.968;10.124;2022-10-16T09:48:44;96837.16;;;21.60
71640;BMP280;60912;48.968;10.124;2022-10-16T09:51:19;96835.03;;;21.47
71640;BMP280;60912;48.968;10.124;2022-10-16T09:53:46;96843.09;;;21.41
71640;BMP280;60912;48.968;10.124;2022-10-16T09:56:25;96855.03;;;21.42
71640;BMP280;60912;48.968;10.124;2022-10-16T09:58:53;96849.81;;;21.36
71640;BMP280;60912;48.968;10.124;2022-10-16T10:01:20;96842.88;;;21.37
71640;BMP280;60912;48.968;10.124;2022-10-16T10:03:48;96847.59;;;21.21
71640;BMP280;60912;48.968;10.124;2022-10-16T10:06:23;96848.03;;;21.29
71640;BMP280;60912;48.968;10.124;2022-10-16T10:11:57;96839.69;;;21.43
71640;BMP280;60912;48.968;10.124;2022-10-16T10:19:46;96854.22;;;21.64
71640;BMP280;60912;48.968;10.124;2022-10-16T10:25:17;96848.69;;;21.66
71640;BMP280;60912;48.968;10.124;2022-10-16T10:30:44;96857.91;;;21.80
71640;BMP280;60912;48.968;10.124;2022-10-16T10:47:01;96851.75;;;22.36
71640;BMP280;60912;48.968;10.124;2022-10-16T10:55:06;96862.72;;;22.44
71640;BMP280;60912;48.968;10.124;2022-10-16T11:02:52;96866.13;;;22.29
71640;BMP280;60912;48.968;10.124;2022-10-16T11:08:10;96866.94;;;22.31
71640;BMP280;60912;48.968;10.124;2022-10-16T11:11:10;96873.31;;;22.32
71640;BMP280;60912;48.968;10.124;2022-10-16T11:14:00;96867.28;;;22.51
71640;BMP280;60912;48.968;10.124;2022-10-16T11:16:30;96870.81;;;22.79
71640;BMP280;60912;48.968;10.124;2022-10-16T11:21:26;96861.38;;;23.29
71640;BMP280;60912;48.968;10.124;2022-10-16T11:24:01;96858.97;;;23.52
71640;BMP280;60912;48.968;10.124;2022-10-16T11:26:34;96858.66;;;23.60
71640;BMP280;60912;48.968;10.124;2022-10-16T11:29:02;96866.34;;;23.59
71640;BMP280;60912;48.968;10.124;2022-10-16T11:31:38;96869.69;;;23.56
71640;BMP280;60912;48.968;10.124;2022-10-16T11:34:12;96865.06;;;23.62
71640;BMP280;60912;48.968;10.124;2022-10-16T11:36:46;96868.59;;;23.92
71640;BMP280;60912;48.968;10.124;2022-10-16T11:39:21;96865.13;;;23.78
71640;BMP280;60912;48.968;10.124;2022-10-16T11:41:51;96854.25;;;23.86
71640;BMP280;60912;48.968;10.124;2022-10-16T11:49:37;96853.34;;;23.97
71640;BMP280;60912;48.968;10.124;2022-10-16T11:52:20;96854.78;;;23.98
71640;BMP280;60912;48.968;10.124;2022-10-16T11:55:15;96852.88;;;24.03
71640;BMP280;60912;48.968;10.124;2022-10-16T11:57:57;96839.72;;;24.23
71640;BMP280;60912;48.968;10.124;2022-10-16T12:00:33;96844.72;;;24.09
71640;BMP280;60912;48.968;10.124;2022-10-16T12:08:22;96855.16;;;24.22
71640;BMP280;60912;48.968;10.124;2022-10-16T12:10:48;96852.56;;;24.44
71640;BMP280;60912;48.968;10.124;2022-10-16T12:13:39;96843.78;;;24.36
71640;BMP280;60912;48.968;10.124;2022-10-16T12:18:38;96849.88;;;24.14
71640;BMP280;60912;48.968;10.124;2022-10-16T12:21:04;96852.97;;;23.89
71640;BMP280;60912;48.968;10.124;2022-10-16T12:23:38;96863.81;;;23.65
71640;BMP280;60912;48.968;10.124;2022-10-16T12:26:11;96854.38;;;23.59
71640;BMP280;60912;48.968;10.124;2022-10-16T12:28:36;96844.38;;;23.56
71640;BMP280;60912;48.968;10.124;2022-10-16T12:31:09;96853.41;;;23.39
71640;BMP280;60912;48.968;10.124;2022-10-16T12:33:36;96854.13;;;23.39
71640;BMP280;60912;48.968;10.124;2022-10-16T12:36:09;96853.63;;;23.43
71640;BMP280;60912;48.968;10.124;2022-10-16T12:38:45;96855.91;;;23.62
71640;BMP280;60912;48.968;10.124;2022-10-16T12:41:11;96855.31;;;23.79
71640;BMP280;60912;48.968;10.124;2022-10-16T12:43:47;96855.13;;;23.91
71640;BMP280;60912;48.968;10.124;2022-10-16T12:48:39;96866.63;;;24.10
71640;BMP280;60912;48.968;10.124;2022-10-16T13:05:29;96856.69;;;24.09
71640;BMP280;60912;48.968;10.124;2022-10-16T13:21:54;96863.44;;;24.67
71640;BMP280;60912;48.968;10.124;2022-10-16T13:29:53;96863.31;;;24.32
71640;BMP280;60912;48.968;10.124;2022-10-16T13:32:21;96866.78;;;24.14
71640;BMP280;60912;48.968;10.124;2022-10-16T13:34:48;96880.22;;;24.00
71640;BMP280;60912;48.968;10.124;2022-10-16T13:37:24;96876.44;;;23.64
71640;BMP280;60912;48.968;10.124;2022-10-16T13:39:49;96876.00;;;23.70
71640;BMP280;60912;48.968;10.124;2022-10-16T13:42:24;96885.91;;;23.71
71640;BMP280;60912;48.968;10.124;2022-10-16T13:44:51;96881.41;;;23.66
71640;BMP280;60912;48.968;10.124;2022-10-16T13:47:22;96878.72;;;23.68
71640;BMP280;60912;48.968;10.124;2022-10-16T13:50:04;96879.25;;;23.64
71640;BMP280;60912;48.968;10.124;2022-10-16T13:52:29;96885.75;;;23.53
71640;BMP280;60912;48.968;10.124;2022-10-16T13:54:55;96897.41;;;23.32
71640;BMP280;60912;48.968;10.124;2022-10-16T13:57:22;96891.41;;;23.11
71640;BMP280;60912;48.968;10.124;2022-10-16T13:59:48;96896.44;;;22.98
71640;BMP280;60912;48.968;10.124;2022-10-16T14:02:33;96893.19;;;22.90
71640;BMP280;60912;48.968;10.124;2022-10-16T14:05:01;96895.50;;;22.94
71640;BMP280;60912;48.968;10.124;2022-10-16T14:07:29;96900.34;;;23.07
71640;BMP280;60912;48.968;10.124;2022-10-16T14:10:00;96897.19;;;23.15
71640;BMP280;60912;48.968;10.124;2022-10-16T14:12:26;96906.19;;;23.11
71640;BMP280;60912;48.968;10.124;2022-10-16T14:14:54;96907.41;;;23.22
71640;BMP280;60912;48.968;10.124;2022-10-16T14:17:22;96907.34;;;23.49
71640;BMP280;60912;48.968;10.124;2022-10-16T14:19:50;96904.34;;;23.74
71640;BMP280;60912;48.968;10.124;2022-10-16T14:22:28;96900.09;;;23.89
71640;BMP280;60912;48.968;10.124;2022-10-16T14:24:54;96897.44;;;23.77
71640;BMP280;60912;48.968;10.124;2022-10-16T14:30:17;96901.47;;;23.58
71640;BMP280;60912;48.968;10.124;2022-10-16T14:32:54;96911.31;;;23.44
71640;BMP280;60912;48.968;10.124;2022-10-16T14:35:30;96899.16;;;23.26
71640;BMP280;60912;48.968;10.124;2022-10-16T14:37:57;96906.63;;;23.05
71640;BMP280;60912;48.968;10.124;2022-10-16T14:40:26;96905.56;;;22.99
71640;BMP280;60912;48.968;10.124;2022-10-16T14:42:52;96907.13;;;23.02
71640;BMP280;60912;48.968;10.124;2022-10-16T14:45:20;96906.88;;;23.12
71640;BMP280;60912;48.968;10.124;2022-10-16T14:47:49;96902.69;;;23.26
71640;BMP280;60912;48.968;10.124;2022-10-16T14:50:15;96900.94;;;23.33
71640;BMP280;60912;48.968;10.124;2022-10-16T14:52:41;96898.22;;;23.35
71640;BMP280;60912;48.968;10.124;2022-10-16T14:55:09;96890.84;;;23.28
71640;BMP280;60912;48.968;10.124;2022-10-16T14:57:35;96887.88;;;23.10
71640;BMP280;60912;48.968;10.124;2022-10-16T15:00:03;96896.44;;;22.98
71640;BMP280;60912;48.968;10.124;2022-10-16T15:02:35;96899.44;;;22.75
71640;BMP280;60912;48.968;10.124;2022-10-16T15:05:34;96903.69;;;22.49
71640;BMP280;60912;48.968;10.124;2022-10-16T15:07:59;96903.66;;;22.22
71640;BMP280;60912;48.968;10.124;2022-10-16T15:10:27;96905.59;;;22.06
71640;BMP280;60912;48.968;10.124;2022-10-16T15:12:54;96898.16;;;21.99
71640;BMP280;60912;48.968;10.124;2022-10-16T15:17:53;96908.81;;;22.14
71640;BMP280;60912;48.968;10.124;2022-10-16T15:20:20;96917.25;;;22.14
71640;BMP280;60912;48.968;10.124;2022-10-16T15:22:46;96922.66;;;22.10
71640;BMP280;60912;48.968;10.124;2022-10-16T15:25:46;96912.88;;;22.11
71640;BMP280;60912;48.968;10.124;2022-10-16T15:28:13;96921.25;;;21.97
71640;BMP280;60912;48.968;10.124;2022-10-16T15:30:40;96924.84;;;21.86
71640;BMP280;60912;48.968;10.124;2022-10-16T15:33:12;96927.19;;;21.78
71640;BMP280;60912;48.968;10.124;2022-10-16T15:35:38;96915.28;;;21.66
71640;BMP280;60912;48.968;10.124;2022-10-16T15:38:04;96917.41;;;21.54
71640;BMP280;60912;48.968;10.124;2022-10-16T15:40:29;96928.06;;;21.44
71640;BMP280;60912;48.968;10.124;2022-10-16T15:42:55;96922.59;;;21.34
71640;BMP280;60912;48.968;10.124;2022-10-16T15:45:21;96921.63;;;21.29
71640;BMP280;60912;48.968;10.124;2022-10-16T15:47:46;96916.50;;;21.26
71640;BMP280;60912;48.968;10.124;2022-10-16T15:50:14;96923.03;;;21.17
71640;BMP280;60912;48.968;10.124;2022-10-16T15:52:40;96917.16;;;21.13
71640;BMP280;60912;48.968;10.124;2022-10-16T15:55:10;96918.16;;;21.06
71640;BMP280;60912;48.968;10.124;2022-10-16T15:57:36;96934.84;;;21.04
71640;BMP280;60912;48.968;10.124;2022-10-16T16:00:06;96936.53;;;20.97
71640;BMP280;60912;48.968;10.124;2022-10-16T16:02:31;96941.94;;;20.81
71640;BMP280;60912;48.968;10.124;2022-10-16T16:04:57;96933.75;;;20.74
71640;BMP280;60912;48.968;10.124;2022-10-16T16:07:22;96938.28;;;20.67
71640;BMP280;60912;48.968;10.124;2022-10-16T16:09:47;96945.06;;;20.64
71640;BMP280;60912;48.968;10.124;2022-10-16T16:12:13;96943.16;;;20.67
71640;BMP280;60912;48.968;10.124;2022-10-16T16:14:39;96939.34;;;20.62
71640;BMP280;60912;48.968;10.124;2022-10-16T16:17:04;96931.94;;;20.55